Marina — SXJE — position and weather

sailwx.info

Track history (hours):
 
Tides and Currents Weather Stations Pressure Air Temp Water Temp Dewpoint Dewpoint Depression Visibility Wind Speed Wind Dir Waves Ship Positions

Marina

Last reported at 2014-Jul-31 16:30 UTC. Time now 2014-Aug-01 05:51 UTC.
Position N 50°10' W 002°07'.

Length 225 m; draft 13.8 m.

Type: Cargo ship. MMSI: 239651000.

Date/timePositionNaut miles runAvg speedWind from/ knotsBaromVisibWave heightAir tempDewpointWater temp
2014-Jul-31 16:30N 50°10' W 002°07'1614.8
2014-Jul-31 15:25N 50°14' W 001°42'2812.9
2014-Jul-31 13:12N 50°22' W 000°59'36 9.8
2014-Jul-31 09:33N 50°31' W 000°06'1311.3
2014-Jul-31 08:26N 50°34' E 000°14'1112.6
2014-Jul-31 07:33N 50°37' E 000°31'1313.2
2014-Jul-31 06:33N 50°44' E 000°49'1312.5
2014-Jul-31 05:33N 50°50' E 001°06'1111.5
2014-Jul-31 04:33N 50°57' E 001°21'1010.0
2014-Jul-31 03:34N 51°04' E 001°31'8 8.5
2014-Jul-31 02:33N 51°10' E 001°41'9 9.4
2014-Jul-31 01:34N 51°17' E 001°50'1111.0
2014-Jul-31 00:33N 51°27' E 001°58'1312.9
2014-Jul-30 23:33N 51°37' E 002°11'1413.6
2014-Jul-30 22:33N 51°47' E 002°25'1313.1
2014-Jul-30 21:33N 51°59' E 002°34'1312.8
2014-Jul-30 20:33N 52°12' E 002°41'40611.2
2014-Jul-29 08:29N 57°44' E 009°26'1111.0
2014-Jul-29 07:29N 57°48' E 009°46'1011.0
2014-Jul-29 06:33N 57°51' E 010°04'1211.5
2014-Jul-29 05:33N 57°51' E 010°25'1111.1
2014-Jul-29 04:33N 57°50' E 010°46'9 9.4
2014-Jul-29 03:33N 57°43' E 010°57'1111.3
2014-Jul-29 02:33N 57°35' E 011°13'1111.4
2014-Jul-29 01:33N 57°26' E 011°26'1211.6
2014-Jul-29 00:33N 57°15' E 011°33'1111.4
2014-Jul-28 23:33N 57°05' E 011°41'1111.2
2014-Jul-28 22:33N 56°54' E 011°47'1110.6
2014-Jul-28 21:33N 56°44' E 011°52'1111.3
2014-Jul-28 20:33N 56°34' E 011°42'1111.5
2014-Jul-28 19:33N 56°24' E 011°31'1211.5
2014-Jul-28 18:33N 56°14' E 011°21'1111.0
2014-Jul-28 17:33N 56°05' E 011°10'1111.0
2014-Jul-28 16:33N 55°56' E 010°59'9 9.2
2014-Jul-28 15:32N 55°48' E 010°49'1110.4
2014-Jul-28 14:27N 55°37' E 010°48'57 9.6
2014-Jul-28 08:33N 54°41' E 010°47'1110.9
2014-Jul-28 07:33N 54°36' E 011°04'1111.2
2014-Jul-28 06:33N 54°33' E 011°23'1111.4
2014-Jul-28 05:33N 54°28' E 011°41'1111.4
2014-Jul-28 04:33N 54°27' E 012°00'9 8.8
2014-Jul-28 03:33N 54°31' E 012°13'8 8.3
2014-Jul-28 02:33N 54°38' E 012°21'8 8.2
2014-Jul-28 01:33N 54°43' E 012°33'1111.3
2014-Jul-28 00:33N 54°48' E 012°50'1211.8
2014-Jul-27 23:33N 54°53' E 013°08'1212.0
2014-Jul-27 22:34N 54°57' E 013°28'1212.0
2014-Jul-27 21:33N 55°01' E 013°47'1211.8
2014-Jul-27 20:33N 55°05' E 014°07'1212.3
2014-Jul-27 19:33N 55°15' E 014°20'1212.5
2014-Jul-27 18:33N 55°25' E 014°34'1211.9
2014-Jul-27 17:33N 55°30' E 014°52'1211.8
2014-Jul-27 16:33N 55°35' E 015°11'1211.8
2014-Jul-27 15:33N 55°40' E 015°30'1211.9
2014-Jul-27 14:33N 55°43' E 015°51'1611.6
2014-Jul-27 13:13N 55°48' E 016°17'710.5
2014-Jul-27 12:33N 55°49' E 016°29'1312.1
2014-Jul-27 11:30N 55°52' E 016°51'1112.2
2014-Jul-27 10:33N 55°55' E 017°11'1212.1
2014-Jul-27 09:33N 55°58' E 017°32'1212.1
2014-Jul-27 08:33N 56°03' E 017°52'1212.1
2014-Jul-27 07:33N 56°10' E 018°10'1212.2
2014-Jul-27 06:34N 56°16' E 018°28'4812.0
2014-Jul-27 02:33N 56°56' E 019°18'5012.1
2014-Jul-26 22:27N 57°40' E 020°00'2312.1
2014-Jul-26 20:33N 58°01' E 020°18'3612.2
2014-Jul-26 17:33N 58°33' E 020°52'2712.2
2014-Jul-26 15:19N 58°55' E 021°20'912.2
2014-Jul-26 14:34N 59°03' E 021°30'1511.9
2014-Jul-26 13:18N 59°14' E 021°49'2711.9
2014-Jul-26 11:04N 59°31' E 022°30'611.8
2014-Jul-26 10:33N 59°32' E 022°41'1212.1
2014-Jul-26 09:33N 59°36' E 023°05'1212.0
2014-Jul-26 08:33N 59°39' E 023°27'1212.1
2014-Jul-26 07:33N 59°42' E 023°50'1212.1
2014-Jul-26 06:33N 59°46' E 024°13'1211.9
2014-Jul-26 05:33N 59°48' E 024°36'1211.8
2014-Jul-26 04:33N 59°51' E 024°59'1212.1
2014-Jul-26 03:33N 59°53' E 025°23'1212.0
2014-Jul-26 02:33N 59°55' E 025°47'1211.9
2014-Jul-26 01:33N 59°58' E 026°10'1211.8
2014-Jul-26 00:33N 60°01' E 026°32'1111.4
2014-Jul-25 23:33N 59°59' E 026°55'1111.1
2014-Jul-25 22:33N 60°04' E 027°16'1211.7
2014-Jul-25 21:33N 60°09' E 027°36'1110.8
2014-Jul-25 20:33N 60°11' E 027°58'32 3.2
2014-Jul-25 10:20N 59°41' E 028°25'0 0.0
2014-Jul-25 09:32N 59°41' E 028°25'0 0.0
2014-Jul-25 07:08N 59°41' E 028°25'0 0.0
2014-Jul-25 05:26N 59°41' E 028°25'0 0.0
2014-Jul-25 04:32N 59°41' E 028°25'0 0.0
2014-Jul-25 03:32N 59°41' E 028°25'0 0.0
2014-Jul-24 09:26N 59°41' E 028°25'0 0.0
2014-Jul-24 08:32N 59°41' E 028°25'0 0.0
2014-Jul-24 06:20N 59°41' E 028°25'0 0.0
2014-Jul-24 05:23N 59°41' E 028°25'0 0.0
2014-Jul-24 04:26N 59°41' E 028°25'0 0.0
2014-Jul-24 03:32N 59°41' E 028°25'31 2.4
2014-Jul-23 14:26N 60°09' E 027°59'1213.7
2014-Jul-23 13:33N 60°08' E 027°35'1514.6
2014-Jul-23 12:31N 59°60' E 027°09'1313.8
2014-Jul-23 11:33N 59°59' E 026°43'1414.2
2014-Jul-23 10:33N 59°56' E 026°15'1514.4
2014-Jul-23 09:30N 59°52' E 025°46'1814.4
2014-Jul-23 08:15N 59°48' E 025°11'2414.4
2014-Jul-23 06:33N 59°43' E 024°23'1414.2
2014-Jul-23 05:33N 59°39' E 023°56'1413.8
2014-Jul-23 04:31N 59°34' E 023°30'1314.1
2014-Jul-23 03:34N 59°30' E 023°05'1414.0
2014-Jul-23 02:33N 59°25' E 022°39'1413.9
2014-Jul-23 01:33N 59°17' E 022°17'1414.0
2014-Jul-23 00:33N 59°08' E 021°55'1414.0
2014-Jul-22 23:33N 58°57' E 021°37'1414.0
2014-Jul-22 22:33N 58°46' E 021°22'1414.1
2014-Jul-22 21:33N 58°34' E 021°07'1414.2
2014-Jul-22 20:33N 58°22' E 020°52'1414.1
2014-Jul-22 19:33N 58°11' E 020°37'1414.1
2014-Jul-22 18:33N 57°59' E 020°21'1714.0
2014-Jul-22 17:22N 57°44' E 020°08'1114.1
2014-Jul-22 16:34N 57°34' E 020°00'1414.1
2014-Jul-22 15:34N 57°21' E 019°50'1414.1
2014-Jul-22 14:34N 57°08' E 019°38'1413.9
2014-Jul-22 13:33N 56°56' E 019°26'1413.9
2014-Jul-22 12:34N 56°44' E 019°14'1413.8
2014-Jul-22 11:34N 56°32' E 019°01'1413.7
2014-Jul-22 10:34N 56°19' E 018°51'1413.9
2014-Jul-22 09:33N 56°12' E 018°30'1414.0
2014-Jul-22 08:33N 56°05' E 018°08'1414.3
2014-Jul-22 07:34N 55°57' E 017°47'1414.2
2014-Jul-22 06:33N 55°53' E 017°22'1414.4
2014-Jul-22 05:33N 55°49' E 016°58'1414.2
2014-Jul-22 04:33N 55°46' E 016°33'1414.0
2014-Jul-22 03:33N 55°43' E 016°09'1414.0
2014-Jul-22 02:33N 55°39' E 015°45'1413.9
2014-Jul-22 01:34N 55°35' E 015°21'1414.0
2014-Jul-22 00:34N 55°30' E 014°58'1414.0
2014-Jul-21 23:33N 55°23' E 014°37'1413.9
2014-Jul-21 22:33N 55°12' E 014°21'1313.1
2014-Jul-21 21:34N 55°10' E 013°59'1414.0
2014-Jul-21 20:34N 55°11' E 013°34'414.3
2014-Jul-21 20:18N 55°11' E 013°28'1014.0
2014-Jul-21 19:33N 55°12' E 013°10'1414.1
2014-Jul-21 18:33N 55°16' E 012°46'1111.1
2014-Jul-21 17:33N 55°27' E 012°40'1010.5
2014-Jul-21 16:34N 55°37' E 012°42'  
Track history (hours):
 
Tides and Currents Weather Stations Pressure Air Temp Water Temp Dewpoint Dewpoint Depression Visibility Wind Speed Wind Dir Waves Ship Positions

Marina

Last reported at 2014-Jul-31 16:30 UTC. Time now 2014-Aug-01 05:51 UTC.
Position N 50°10' W 002°07'.

Length 225 m; draft 13.8 m.

Type: Cargo ship. MMSI: 239651000.

Date/timePositionNaut miles runAvg speedWind from/ knotsBaromVisibWave heightAir tempDewpointWater temp
2014-Jul-31 16:30N 50°10' W 002°07'1614.8
2014-Jul-31 15:25N 50°14' W 001°42'2812.9
2014-Jul-31 13:12N 50°22' W 000°59'36 9.8
2014-Jul-31 09:33N 50°31' W 000°06'1311.3
2014-Jul-31 08:26N 50°34' E 000°14'1112.6
2014-Jul-31 07:33N 50°37' E 000°31'1313.2
2014-Jul-31 06:33N 50°44' E 000°49'1312.5
2014-Jul-31 05:33N 50°50' E 001°06'1111.5
2014-Jul-31 04:33N 50°57' E 001°21'1010.0
2014-Jul-31 03:34N 51°04' E 001°31'8 8.5
2014-Jul-31 02:33N 51°10' E 001°41'9 9.4
2014-Jul-31 01:34N 51°17' E 001°50'1111.0
2014-Jul-31 00:33N 51°27' E 001°58'1312.9
2014-Jul-30 23:33N 51°37' E 002°11'1413.6
2014-Jul-30 22:33N 51°47' E 002°25'1313.1
2014-Jul-30 21:33N 51°59' E 002°34'1312.8
2014-Jul-30 20:33N 52°12' E 002°41'40611.2
2014-Jul-29 08:29N 57°44' E 009°26'1111.0
2014-Jul-29 07:29N 57°48' E 009°46'1011.0
2014-Jul-29 06:33N 57°51' E 010°04'1211.5
2014-Jul-29 05:33N 57°51' E 010°25'1111.1
2014-Jul-29 04:33N 57°50' E 010°46'9 9.4
2014-Jul-29 03:33N 57°43' E 010°57'1111.3
2014-Jul-29 02:33N 57°35' E 011°13'1111.4
2014-Jul-29 01:33N 57°26' E 011°26'1211.6
2014-Jul-29 00:33N 57°15' E 011°33'1111.4
2014-Jul-28 23:33N 57°05' E 011°41'1111.2
2014-Jul-28 22:33N 56°54' E 011°47'1110.6
2014-Jul-28 21:33N 56°44' E 011°52'1111.3
2014-Jul-28 20:33N 56°34' E 011°42'1111.5
2014-Jul-28 19:33N 56°24' E 011°31'1211.5
2014-Jul-28 18:33N 56°14' E 011°21'1111.0
2014-Jul-28 17:33N 56°05' E 011°10'1111.0
2014-Jul-28 16:33N 55°56' E 010°59'9 9.2
2014-Jul-28 15:32N 55°48' E 010°49'1110.4
2014-Jul-28 14:27N 55°37' E 010°48'57 9.6
2014-Jul-28 08:33N 54°41' E 010°47'1110.9
2014-Jul-28 07:33N 54°36' E 011°04'1111.2
2014-Jul-28 06:33N 54°33' E 011°23'1111.4
2014-Jul-28 05:33N 54°28' E 011°41'1111.4
2014-Jul-28 04:33N 54°27' E 012°00'9 8.8
2014-Jul-28 03:33N 54°31' E 012°13'8 8.3
2014-Jul-28 02:33N 54°38' E 012°21'8 8.2
2014-Jul-28 01:33N 54°43' E 012°33'1111.3
2014-Jul-28 00:33N 54°48' E 012°50'1211.8
2014-Jul-27 23:33N 54°53' E 013°08'1212.0
2014-Jul-27 22:34N 54°57' E 013°28'1212.0
2014-Jul-27 21:33N 55°01' E 013°47'1211.8
2014-Jul-27 20:33N 55°05' E 014°07'1212.3
2014-Jul-27 19:33N 55°15' E 014°20'1212.5
2014-Jul-27 18:33N 55°25' E 014°34'1211.9
2014-Jul-27 17:33N 55°30' E 014°52'1211.8
2014-Jul-27 16:33N 55°35' E 015°11'1211.8
2014-Jul-27 15:33N 55°40' E 015°30'1211.9
2014-Jul-27 14:33N 55°43' E 015°51'1611.6
2014-Jul-27 13:13N 55°48' E 016°17'710.5
2014-Jul-27 12:33N 55°49' E 016°29'1312.1
2014-Jul-27 11:30N 55°52' E 016°51'1112.2
2014-Jul-27 10:33N 55°55' E 017°11'1212.1
2014-Jul-27 09:33N 55°58' E 017°32'1212.1
2014-Jul-27 08:33N 56°03' E 017°52'1212.1
2014-Jul-27 07:33N 56°10' E 018°10'1212.2
2014-Jul-27 06:34N 56°16' E 018°28'4812.0
2014-Jul-27 02:33N 56°56' E 019°18'5012.1
2014-Jul-26 22:27N 57°40' E 020°00'2312.1
2014-Jul-26 20:33N 58°01' E 020°18'3612.2
2014-Jul-26 17:33N 58°33' E 020°52'2712.2
2014-Jul-26 15:19N 58°55' E 021°20'912.2
2014-Jul-26 14:34N 59°03' E 021°30'1511.9
2014-Jul-26 13:18N 59°14' E 021°49'2711.9
2014-Jul-26 11:04N 59°31' E 022°30'611.8
2014-Jul-26 10:33N 59°32' E 022°41'1212.1
2014-Jul-26 09:33N 59°36' E 023°05'1212.0
2014-Jul-26 08:33N 59°39' E 023°27'1212.1
2014-Jul-26 07:33N 59°42' E 023°50'1212.1
2014-Jul-26 06:33N 59°46' E 024°13'1211.9
2014-Jul-26 05:33N 59°48' E 024°36'1211.8
2014-Jul-26 04:33N 59°51' E 024°59'1212.1
2014-Jul-26 03:33N 59°53' E 025°23'1212.0
2014-Jul-26 02:33N 59°55' E 025°47'1211.9
2014-Jul-26 01:33N 59°58' E 026°10'1211.8
2014-Jul-26 00:33N 60°01' E 026°32'1111.4
2014-Jul-25 23:33N 59°59' E 026°55'1111.1
2014-Jul-25 22:33N 60°04' E 027°16'1211.7
2014-Jul-25 21:33N 60°09' E 027°36'1110.8
2014-Jul-25 20:33N 60°11' E 027°58'32 3.2
2014-Jul-25 10:20N 59°41' E 028°25'0 0.0
2014-Jul-25 09:32N 59°41' E 028°25'0 0.0
2014-Jul-25 07:08N 59°41' E 028°25'0 0.0
2014-Jul-25 05:26N 59°41' E 028°25'0 0.0
2014-Jul-25 04:32N 59°41' E 028°25'0 0.0
2014-Jul-25 03:32N 59°41' E 028°25'0 0.0
2014-Jul-24 09:26N 59°41' E 028°25'0 0.0
2014-Jul-24 08:32N 59°41' E 028°25'0 0.0
2014-Jul-24 06:20N 59°41' E 028°25'0 0.0
2014-Jul-24 05:23N 59°41' E 028°25'0 0.0
2014-Jul-24 04:26N 59°41' E 028°25'0 0.0
2014-Jul-24 03:32N 59°41' E 028°25'31 2.4
2014-Jul-23 14:26N 60°09' E 027°59'1213.7
2014-Jul-23 13:33N 60°08' E 027°35'1514.6
2014-Jul-23 12:31N 59°60' E 027°09'1313.8
2014-Jul-23 11:33N 59°59' E 026°43'1414.2
2014-Jul-23 10:33N 59°56' E 026°15'1514.4
2014-Jul-23 09:30N 59°52' E 025°46'1814.4
2014-Jul-23 08:15N 59°48' E 025°11'2414.4
2014-Jul-23 06:33N 59°43' E 024°23'1414.2
2014-Jul-23 05:33N 59°39' E 023°56'1413.8
2014-Jul-23 04:31N 59°34' E 023°30'1314.1
2014-Jul-23 03:34N 59°30' E 023°05'1414.0
2014-Jul-23 02:33N 59°25' E 022°39'1413.9
2014-Jul-23 01:33N 59°17' E 022°17'1414.0
2014-Jul-23 00:33N 59°08' E 021°55'1414.0
2014-Jul-22 23:33N 58°57' E 021°37'1414.0
2014-Jul-22 22:33N 58°46' E 021°22'1414.1
2014-Jul-22 21:33N 58°34' E 021°07'1414.2
2014-Jul-22 20:33N 58°22' E 020°52'1414.1
2014-Jul-22 19:33N 58°11' E 020°37'1414.1
2014-Jul-22 18:33N 57°59' E 020°21'1714.0
2014-Jul-22 17:22N 57°44' E 020°08'1114.1
2014-Jul-22 16:34N 57°34' E 020°00'1414.1
2014-Jul-22 15:34N 57°21' E 019°50'1414.1
2014-Jul-22 14:34N 57°08' E 019°38'1413.9
2014-Jul-22 13:33N 56°56' E 019°26'1413.9
2014-Jul-22 12:34N 56°44' E 019°14'1413.8
2014-Jul-22 11:34N 56°32' E 019°01'1413.7
2014-Jul-22 10:34N 56°19' E 018°51'1413.9
2014-Jul-22 09:33N 56°12' E 018°30'1414.0
2014-Jul-22 08:33N 56°05' E 018°08'1414.3
2014-Jul-22 07:34N 55°57' E 017°47'1414.2
2014-Jul-22 06:33N 55°53' E 017°22'1414.4
2014-Jul-22 05:33N 55°49' E 016°58'1414.2
2014-Jul-22 04:33N 55°46' E 016°33'1414.0
2014-Jul-22 03:33N 55°43' E 016°09'1414.0
2014-Jul-22 02:33N 55°39' E 015°45'1413.9
2014-Jul-22 01:34N 55°35' E 015°21'1414.0
2014-Jul-22 00:34N 55°30' E 014°58'1414.0
2014-Jul-21 23:33N 55°23' E 014°37'1413.9
2014-Jul-21 22:33N 55°12' E 014°21'1313.1
2014-Jul-21 21:34N 55°10' E 013°59'1414.0
2014-Jul-21 20:34N 55°11' E 013°34'414.3
2014-Jul-21 20:18N 55°11' E 013°28'1014.0
2014-Jul-21 19:33N 55°12' E 013°10'1414.1
2014-Jul-21 18:33N 55°16' E 012°46'1111.1
2014-Jul-21 17:33N 55°27' E 012°40'1010.5
2014-Jul-21 16:34N 55°37' E 012°42'  

Dump ship's entire track history